sensor_id;sensor_type;location;lat;lon;timestamp;P1;durP1;ratioP1;P2;durP2;ratioP2
24635;SDS011;12772;49.794;10.024;2023-09-07T00:02:04;4.10;;;3.10;;
24635;SDS011;12772;49.794;10.024;2023-09-07T00:06:07;3.20;;;2.90;;
24635;SDS011;12772;49.794;10.024;2023-09-07T00:10:11;3.92;;;2.92;;
24635;SDS011;12772;49.794;10.024;2023-09-07T00:14:13;3.15;;;2.92;;
24635;SDS011;12772;49.794;10.024;2023-09-07T00:18:15;3.15;;;2.95;;
24635;SDS011;12772;49.794;10.024;2023-09-07T00:22:17;2.78;;;2.58;;
24635;SDS011;12772;49.794;10.024;2023-09-07T00:26:19;3.70;;;3.10;;
24635;SDS011;12772;49.794;10.024;2023-09-07T00:30:21;2.95;;;2.75;;
24635;SDS011;12772;49.794;10.024;2023-09-07T00:34:23;4.03;;;3.20;;
24635;SDS011;12772;49.794;10.024;2023-09-07T00:38:25;4.82;;;3.20;;
24635;SDS011;12772;49.794;10.024;2023-09-07T00:42:27;3.42;;;3.20;;
24635;SDS011;12772;49.794;10.024;2023-09-07T00:46:29;2.75;;;2.55;;
24635;SDS011;12772;49.794;10.024;2023-09-07T00:50:31;4.43;;;2.50;;
24635;SDS011;12772;49.794;10.024;2023-09-07T00:54:33;2.90;;;2.70;;
24635;SDS011;12772;49.794;10.024;2023-09-07T00:58:37;3.20;;;3.00;;
24635;SDS011;12772;49.794;10.024;2023-09-07T01:02:39;3.00;;;2.80;;
24635;SDS011;12772;49.794;10.024;2023-09-07T01:06:44;2.95;;;2.75;;
24635;SDS011;12772;49.794;10.024;2023-09-07T01:10:52;2.97;;;2.78;;
24635;SDS011;12772;49.794;10.024;2023-09-07T01:14:54;3.95;;;2.70;;
24635;SDS011;12772;49.794;10.024;2023-09-07T01:18:56;6.22;;;2.97;;
24635;SDS011;12772;49.794;10.024;2023-09-07T01:22:58;3.33;;;2.70;;
24635;SDS011;12772;49.794;10.024;2023-09-07T01:27:01;3.25;;;2.95;;
24635;SDS011;12772;49.794;10.024;2023-09-07T01:31:04;3.28;;;2.97;;
24635;SDS011;12772;49.794;10.024;2023-09-07T01:35:07;3.42;;;3.13;;
24635;SDS011;12772;49.794;10.024;2023-09-07T01:39:12;2.88;;;2.67;;
24635;SDS011;12772;49.794;10.024;2023-09-07T01:43:14;2.80;;;2.60;;
24635;SDS011;12772;49.794;10.024;2023-09-07T01:47:16;3.42;;;3.13;;
24635;SDS011;12772;49.794;10.024;2023-09-07T01:51:19;3.22;;;3.03;;
24635;SDS011;12772;49.794;10.024;2023-09-07T01:55:21;2.70;;;2.50;;
24635;SDS011;12772;49.794;10.024;2023-09-07T01:59:23;2.88;;;2.67;;
24635;SDS011;12772;49.794;10.024;2023-09-07T02:03:26;3.60;;;3.13;;
24635;SDS011;12772;49.794;10.024;2023-09-07T02:07:28;4.55;;;3.63;;
24635;SDS011;12772;49.794;10.024;2023-09-07T02:11:30;3.40;;;3.10;;
24635;SDS011;12772;49.794;10.024;2023-09-07T02:15:32;2.88;;;2.67;;
24635;SDS011;12772;49.794;10.024;2023-09-07T02:19:34;3.30;;;2.85;;
24635;SDS011;12772;49.794;10.024;2023-09-07T02:23:36;2.95;;;2.65;;
24635;SDS011;12772;49.794;10.024;2023-09-07T02:27:38;3.05;;;2.80;;
24635;SDS011;12772;49.794;10.024;2023-09-07T02:31:41;3.33;;;3.03;;
24635;SDS011;12772;49.794;10.024;2023-09-07T02:35:43;3.40;;;3.10;;
24635;SDS011;12772;49.794;10.024;2023-09-07T02:39:45;4.18;;;3.13;;
24635;SDS011;12772;49.794;10.024;2023-09-07T02:43:47;3.97;;;2.95;;
24635;SDS011;12772;49.794;10.024;2023-09-07T02:47:49;4.55;;;3.00;;
24635;SDS011;12772;49.794;10.024;2023-09-07T02:51:52;4.00;;;3.63;;
24635;SDS011;12772;49.794;10.024;2023-09-07T02:55:54;4.82;;;3.45;;
24635;SDS011;12772;49.794;10.024;2023-09-07T02:59:56;3.10;;;2.88;;
24635;SDS011;12772;49.794;10.024;2023-09-07T03:03:58;3.63;;;3.33;;
24635;SDS011;12772;49.794;10.024;2023-09-07T03:08:00;3.47;;;3.28;;
24635;SDS011;12772;49.794;10.024;2023-09-07T03:12:04;3.45;;;3.03;;
24635;SDS011;12772;49.794;10.024;2023-09-07T03:16:06;5.35;;;4.15;;
24635;SDS011;12772;49.794;10.024;2023-09-07T03:20:08;3.80;;;3.50;;
24635;SDS011;12772;49.794;10.024;2023-09-07T03:24:14;3.45;;;3.17;;
24635;SDS011;12772;49.794;10.024;2023-09-07T03:28:16;4.15;;;3.35;;
24635;SDS011;12772;49.794;10.024;2023-09-07T03:32:20;3.90;;;3.50;;
24635;SDS011;12772;49.794;10.024;2023-09-07T03:36:22;4.07;;;3.70;;
24635;SDS011;12772;49.794;10.024;2023-09-07T03:40:24;3.65;;;3.35;;
24635;SDS011;12772;49.794;10.024;2023-09-07T03:44:26;3.67;;;3.38;;
24635;SDS011;12772;49.794;10.024;2023-09-07T03:48:28;3.30;;;3.10;;
24635;SDS011;12772;49.794;10.024;2023-09-07T03:52:30;4.75;;;4.25;;
24635;SDS011;12772;49.794;10.024;2023-09-07T03:56:32;8.70;;;6.38;;
24635;SDS011;12772;49.794;10.024;2023-09-07T04:00:34;11.35;;;6.30;;
24635;SDS011;12772;49.794;10.024;2023-09-07T04:04:37;10.30;;;6.63;;
24635;SDS011;12772;49.794;10.024;2023-09-07T04:08:39;13.38;;;7.90;;
24635;SDS011;12772;49.794;10.024;2023-09-07T04:12:41;16.65;;;8.55;;
24635;SDS011;12772;49.794;10.024;2023-09-07T04:16:43;12.88;;;8.02;;
24635;SDS011;12772;49.794;10.024;2023-09-07T04:20:44;12.27;;;9.15;;
24635;SDS011;12772;49.794;10.024;2023-09-07T04:24:47;14.57;;;10.25;;
24635;SDS011;12772;49.794;10.024;2023-09-07T04:28:50;16.60;;;10.90;;
24635;SDS011;12772;49.794;10.024;2023-09-07T04:32:52;13.63;;;10.38;;
24635;SDS011;12772;49.794;10.024;2023-09-07T04:36:54;14.45;;;10.95;;
24635;SDS011;12772;49.794;10.024;2023-09-07T04:41:04;11.65;;;8.80;;
24635;SDS011;12772;49.794;10.024;2023-09-07T04:45:10;8.75;;;7.32;;
24635;SDS011;12772;49.794;10.024;2023-09-07T04:49:12;6.53;;;5.93;;
24635;SDS011;12772;49.794;10.024;2023-09-07T04:53:14;8.00;;;5.90;;
24635;SDS011;12772;49.794;10.024;2023-09-07T04:57:16;8.77;;;6.68;;
24635;SDS011;12772;49.794;10.024;2023-09-07T05:01:18;9.75;;;8.10;;
24635;SDS011;12772;49.794;10.024;2023-09-07T05:05:20;8.68;;;7.55;;
24635;SDS011;12772;49.794;10.024;2023-09-07T05:09:22;9.02;;;7.07;;
24635;SDS011;12772;49.794;10.024;2023-09-07T05:13:25;9.80;;;7.05;;
24635;SDS011;12772;49.794;10.024;2023-09-07T05:17:28;7.68;;;6.40;;
24635;SDS011;12772;49.794;10.024;2023-09-07T05:21:30;8.60;;;6.40;;
24635;SDS011;12772;49.794;10.024;2023-09-07T05:25:32;10.30;;;6.97;;
24635;SDS011;12772;49.794;10.024;2023-09-07T05:29:34;8.98;;;6.45;;
24635;SDS011;12772;49.794;10.024;2023-09-07T05:33:36;11.43;;;8.35;;
24635;SDS011;12772;49.794;10.024;2023-09-07T05:37:38;10.82;;;8.80;;
24635;SDS011;12772;49.794;10.024;2023-09-07T05:41:40;10.18;;;8.30;;
24635;SDS011;12772;49.794;10.024;2023-09-07T05:45:42;11.40;;;7.90;;
24635;SDS011;12772;49.794;10.024;2023-09-07T05:49:44;11.57;;;8.60;;
24635;SDS011;12772;49.794;10.024;2023-09-07T05:53:46;8.68;;;7.15;;
24635;SDS011;12772;49.794;10.024;2023-09-07T05:57:48;8.05;;;6.95;;
24635;SDS011;12772;49.794;10.024;2023-09-07T06:01:50;8.85;;;6.90;;
24635;SDS011;12772;49.794;10.024;2023-09-07T06:05:52;7.57;;;6.30;;
24635;SDS011;12772;49.794;10.024;2023-09-07T06:09:54;7.60;;;6.70;;
24635;SDS011;12772;49.794;10.024;2023-09-07T06:13:59;5.88;;;5.00;;
24635;SDS011;12772;49.794;10.024;2023-09-07T06:18:01;6.57;;;5.63;;
24635;SDS011;12772;49.794;10.024;2023-09-07T06:22:03;5.70;;;5.05;;
24635;SDS011;12772;49.794;10.024;2023-09-07T06:26:05;6.60;;;4.75;;
24635;SDS011;12772;49.794;10.024;2023-09-07T06:30:08;6.28;;;5.68;;
24635;SDS011;12772;49.794;10.024;2023-09-07T06:34:10;6.15;;;4.95;;
24635;SDS011;12772;49.794;10.024;2023-09-07T06:38:12;6.10;;;5.47;;
24635;SDS011;12772;49.794;10.024;2023-09-07T06:42:14;5.00;;;4.60;;
24635;SDS011;12772;49.794;10.024;2023-09-07T06:46:16;5.68;;;5.10;;
24635;SDS011;12772;49.794;10.024;2023-09-07T06:50:19;4.85;;;4.38;;
24635;SDS011;12772;49.794;10.024;2023-09-07T06:54:22;5.35;;;4.43;;
24635;SDS011;12772;49.794;10.024;2023-09-07T06:58:24;4.90;;;4.28;;
24635;SDS011;12772;49.794;10.024;2023-09-07T07:02:26;4.35;;;3.95;;
24635;SDS011;12772;49.794;10.024;2023-09-07T07:06:28;4.28;;;3.97;;
24635;SDS011;12772;49.794;10.024;2023-09-07T07:10:30;4.78;;;4.38;;
24635;SDS011;12772;49.794;10.024;2023-09-07T07:14:32;5.05;;;3.78;;
24635;SDS011;12772;49.794;10.024;2023-09-07T07:18:34;7.03;;;4.70;;
24635;SDS011;12772;49.794;10.024;2023-09-07T07:22:36;4.88;;;4.10;;
24635;SDS011;12772;49.794;10.024;2023-09-07T07:26:38;5.72;;;4.72;;
24635;SDS011;12772;49.794;10.024;2023-09-07T07:30:40;7.75;;;5.38;;
24635;SDS011;12772;49.794;10.024;2023-09-07T07:34:42;5.07;;;4.57;;
24635;SDS011;12772;49.794;10.024;2023-09-07T07:38:44;4.20;;;3.88;;
24635;SDS011;12772;49.794;10.024;2023-09-07T07:42:46;5.03;;;4.53;;
24635;SDS011;12772;49.794;10.024;2023-09-07T07:46:49;7.35;;;5.20;;
24635;SDS011;12772;49.794;10.024;2023-09-07T07:50:51;4.82;;;3.97;;
24635;SDS011;12772;49.794;10.024;2023-09-07T07:54:53;4.78;;;4.15;;
24635;SDS011;12772;49.794;10.024;2023-09-07T07:58:55;5.07;;;4.40;;
24635;SDS011;12772;49.794;10.024;2023-09-07T08:02:57;4.28;;;3.88;;
24635;SDS011;12772;49.794;10.024;2023-09-07T08:06:59;4.15;;;3.85;;
24635;SDS011;12772;49.794;10.024;2023-09-07T08:11:04;5.43;;;4.50;;
24635;SDS011;12772;49.794;10.024;2023-09-07T08:15:06;4.13;;;3.72;;
24635;SDS011;12772;49.794;10.024;2023-09-07T08:19:08;4.43;;;3.58;;
24635;SDS011;12772;49.794;10.024;2023-09-07T08:23:10;4.00;;;3.70;;
24635;SDS011;12772;49.794;10.024;2023-09-07T08:27:12;4.88;;;3.65;;
24635;SDS011;12772;49.794;10.024;2023-09-07T08:31:18;4.25;;;3.75;;
24635;SDS011;12772;49.794;10.024;2023-09-07T08:35:22;3.95;;;3.47;;
24635;SDS011;12772;49.794;10.024;2023-09-07T08:39:27;4.32;;;3.92;;
24635;SDS011;12772;49.794;10.024;2023-09-07T08:43:29;4.75;;;4.30;;
24635;SDS011;12772;49.794;10.024;2023-09-07T08:47:35;5.47;;;4.10;;
24635;SDS011;12772;49.794;10.024;2023-09-07T08:51:38;4.60;;;4.20;;
24635;SDS011;12772;49.794;10.024;2023-09-07T08:55:40;4.10;;;3.80;;
24635;SDS011;12772;49.794;10.024;2023-09-07T08:59:42;4.43;;;4.00;;
24635;SDS011;12772;49.794;10.024;2023-09-07T09:03:45;6.88;;;4.88;;
24635;SDS011;12772;49.794;10.024;2023-09-07T09:07:47;4.22;;;3.83;;
24635;SDS011;12772;49.794;10.024;2023-09-07T09:11:49;4.93;;;4.00;;
24635;SDS011;12772;49.794;10.024;2023-09-07T09:15:52;4.28;;;3.88;;
24635;SDS011;12772;49.794;10.024;2023-09-07T09:19:54;5.13;;;4.25;;
24635;SDS011;12772;49.794;10.024;2023-09-07T09:23:57;7.13;;;4.30;;
24635;SDS011;12772;49.794;10.024;2023-09-07T09:28:00;6.95;;;4.47;;
24635;SDS011;12772;49.794;10.024;2023-09-07T09:32:03;5.10;;;4.15;;
24635;SDS011;12772;49.794;10.024;2023-09-07T09:36:06;5.55;;;3.67;;
24635;SDS011;12772;49.794;10.024;2023-09-07T09:40:09;5.47;;;3.58;;
24635;SDS011;12772;49.794;10.024;2023-09-07T09:44:12;5.50;;;4.07;;
24635;SDS011;12772;49.794;10.024;2023-09-07T09:48:14;5.90;;;3.80;;
24635;SDS011;12772;49.794;10.024;2023-09-07T09:52:18;4.13;;;3.72;;
24635;SDS011;12772;49.794;10.024;2023-09-07T09:56:20;5.65;;;3.72;;
24635;SDS011;12772;49.794;10.024;2023-09-07T10:00:23;3.95;;;3.40;;
24635;SDS011;12772;49.794;10.024;2023-09-07T10:04:27;3.75;;;3.45;;
24635;SDS011;12772;49.794;10.024;2023-09-07T10:08:30;5.57;;;4.13;;
24635;SDS011;12772;49.794;10.024;2023-09-07T10:12:39;3.75;;;3.45;;
24635;SDS011;12772;49.794;10.024;2023-09-07T10:16:51;4.28;;;3.40;;
24635;SDS011;12772;49.794;10.024;2023-09-07T10:20:58;4.68;;;3.67;;
24635;SDS011;12772;49.794;10.024;2023-09-07T10:25:03;4.30;;;3.63;;
24635;SDS011;12772;49.794;10.024;2023-09-07T10:29:07;4.53;;;3.97;;
24635;SDS011;12772;49.794;10.024;2023-09-07T10:33:19;4.22;;;3.78;;
24635;SDS011;12772;49.794;10.024;2023-09-07T10:37:27;3.88;;;3.58;;
24635;SDS011;12772;49.794;10.024;2023-09-07T10:41:40;6.45;;;3.95;;
24635;SDS011;12772;49.794;10.024;2023-09-07T10:45:44;4.68;;;3.92;;
24635;SDS011;12772;49.794;10.024;2023-09-07T10:49:46;4.63;;;3.58;;
24635;SDS011;12772;49.794;10.024;2023-09-07T10:53:49;3.90;;;3.60;;
24635;SDS011;12772;49.794;10.024;2023-09-07T10:57:51;4.60;;;3.35;;
24635;SDS011;12772;49.794;10.024;2023-09-07T11:01:53;3.38;;;3.15;;
24635;SDS011;12772;49.794;10.024;2023-09-07T11:06:03;4.07;;;3.67;;
24635;SDS011;12772;49.794;10.024;2023-09-07T11:10:13;3.72;;;3.42;;
24635;SDS011;12772;49.794;10.024;2023-09-07T11:14:15;3.80;;;3.50;;
24635;SDS011;12772;49.794;10.024;2023-09-07T11:18:20;3.70;;;3.35;;
24635;SDS011;12772;49.794;10.024;2023-09-07T11:22:23;3.53;;;3.22;;
24635;SDS011;12772;49.794;10.024;2023-09-07T11:26:25;3.75;;;3.45;;
24635;SDS011;12772;49.794;10.024;2023-09-07T11:30:27;5.18;;;3.20;;
24635;SDS011;12772;49.794;10.024;2023-09-07T11:34:29;3.15;;;2.95;;
24635;SDS011;12772;49.794;10.024;2023-09-07T11:38:36;4.10;;;3.38;;
24635;SDS011;12772;49.794;10.024;2023-09-07T11:42:39;3.17;;;2.97;;
24635;SDS011;12772;49.794;10.024;2023-09-07T11:46:42;4.03;;;3.60;;
24635;SDS011;12772;49.794;10.024;2023-09-07T11:50:44;4.82;;;3.30;;
24635;SDS011;12772;49.794;10.024;2023-09-07T11:54:46;3.25;;;3.03;;
24635;SDS011;12772;49.794;10.024;2023-09-07T11:58:48;3.58;;;3.20;;
24635;SDS011;12772;49.794;10.024;2023-09-07T12:02:50;3.95;;;3.38;;
24635;SDS011;12772;49.794;10.024;2023-09-07T12:06:52;3.75;;;3.45;;
24635;SDS011;12772;49.794;10.024;2023-09-07T12:10:54;3.97;;;3.45;;
24635;SDS011;12772;49.794;10.024;2023-09-07T12:14:56;3.72;;;3.53;;
24635;SDS011;12772;49.794;10.024;2023-09-07T12:18:58;4.45;;;4.05;;
24635;SDS011;12772;49.794;10.024;2023-09-07T12:23:00;3.38;;;3.17;;
24635;SDS011;12772;49.794;10.024;2023-09-07T12:27:02;3.25;;;3.00;;
24635;SDS011;12772;49.794;10.024;2023-09-07T12:31:04;3.55;;;3.25;;
24635;SDS011;12772;49.794;10.024;2023-09-07T12:35:06;3.83;;;3.47;;
24635;SDS011;12772;49.794;10.024;2023-09-07T12:39:09;3.88;;;3.58;;
24635;SDS011;12772;49.794;10.024;2023-09-07T12:43:14;6.88;;;3.75;;
24635;SDS011;12772;49.794;10.024;2023-09-07T12:47:16;3.90;;;3.60;;
24635;SDS011;12772;49.794;10.024;2023-09-07T12:51:18;4.45;;;3.97;;
24635;SDS011;12772;49.794;10.024;2023-09-07T12:55:20;7.32;;;4.05;;
24635;SDS011;12772;49.794;10.024;2023-09-07T12:59:22;3.78;;;3.55;;
24635;SDS011;12772;49.794;10.024;2023-09-07T13:03:24;3.20;;;3.00;;
24635;SDS011;12772;49.794;10.024;2023-09-07T13:07:26;4.03;;;3.65;;
24635;SDS011;12772;49.794;10.024;2023-09-07T13:11:28;3.67;;;3.38;;
24635;SDS011;12772;49.794;10.024;2023-09-07T13:15:30;6.50;;;3.92;;
24635;SDS011;12772;49.794;10.024;2023-09-07T13:19:32;6.55;;;3.60;;
24635;SDS011;12772;49.794;10.024;2023-09-07T13:23:34;3.88;;;3.40;;
24635;SDS011;12772;49.794;10.024;2023-09-07T13:27:36;4.32;;;4.03;;
24635;SDS011;12772;49.794;10.024;2023-09-07T13:31:38;4.10;;;3.70;;
24635;SDS011;12772;49.794;10.024;2023-09-07T13:35:40;4.30;;;3.90;;
24635;SDS011;12772;49.794;10.024;2023-09-07T13:39:42;3.97;;;3.67;;
24635;SDS011;12772;49.794;10.024;2023-09-07T13:43:44;3.60;;;3.30;;
24635;SDS011;12772;49.794;10.024;2023-09-07T13:47:46;4.07;;;3.47;;
24635;SDS011;12772;49.794;10.024;2023-09-07T13:51:48;4.20;;;3.50;;
24635;SDS011;12772;49.794;10.024;2023-09-07T13:55:50;4.55;;;3.50;;
24635;SDS011;12772;49.794;10.024;2023-09-07T13:59:52;4.43;;;3.83;;
24635;SDS011;12772;49.794;10.024;2023-09-07T14:03:54;3.40;;;3.10;;
24635;SDS011;12772;49.794;10.024;2023-09-07T14:07:56;3.90;;;3.60;;
24635;SDS011;12772;49.794;10.024;2023-09-07T14:11:58;4.63;;;3.38;;
24635;SDS011;12772;49.794;10.024;2023-09-07T14:16:01;4.30;;;3.53;;
24635;SDS011;12772;49.794;10.024;2023-09-07T14:20:03;3.58;;;3.28;;
24635;SDS011;12772;49.794;10.024;2023-09-07T14:24:05;4.35;;;3.42;;
24635;SDS011;12772;49.794;10.024;2023-09-07T14:28:07;3.50;;;3.30;;
24635;SDS011;12772;49.794;10.024;2023-09-07T14:32:09;5.40;;;3.67;;
24635;SDS011;12772;49.794;10.024;2023-09-07T14:36:11;4.70;;;3.30;;
24635;SDS011;12772;49.794;10.024;2023-09-07T14:40:13;6.20;;;3.80;;
24635;SDS011;12772;49.794;10.024;2023-09-07T14:44:15;3.95;;;3.63;;
24635;SDS011;12772;49.794;10.024;2023-09-07T14:48:17;5.35;;;3.35;;
24635;SDS011;12772;49.794;10.024;2023-09-07T14:52:20;5.43;;;3.60;;
24635;SDS011;12772;49.794;10.024;2023-09-07T14:56:25;3.45;;;3.00;;
24635;SDS011;12772;49.794;10.024;2023-09-07T15:00:29;4.53;;;3.40;;
24635;SDS011;12772;49.794;10.024;2023-09-07T15:04:33;3.83;;;3.47;;
24635;SDS011;12772;49.794;10.024;2023-09-07T15:08:35;3.50;;;3.20;;
24635;SDS011;12772;49.794;10.024;2023-09-07T15:12:37;3.05;;;2.85;;
24635;SDS011;12772;49.794;10.024;2023-09-07T15:16:39;4.68;;;3.15;;
24635;SDS011;12772;49.794;10.024;2023-09-07T15:20:41;3.25;;;3.05;;
24635;SDS011;12772;49.794;10.024;2023-09-07T15:24:43;4.88;;;3.40;;
24635;SDS011;12772;49.794;10.024;2023-09-07T15:28:45;3.75;;;3.00;;
24635;SDS011;12772;49.794;10.024;2023-09-07T15:32:47;4.57;;;3.40;;
24635;SDS011;12772;49.794;10.024;2023-09-07T15:36:49;4.60;;;3.20;;
24635;SDS011;12772;49.794;10.024;2023-09-07T15:40:51;6.60;;;3.50;;
24635;SDS011;12772;49.794;10.024;2023-09-07T15:44:53;3.92;;;3.63;;
24635;SDS011;12772;49.794;10.024;2023-09-07T15:48:55;3.75;;;3.45;;
24635;SDS011;12772;49.794;10.024;2023-09-07T15:52:57;6.72;;;3.70;;
24635;SDS011;12772;49.794;10.024;2023-09-07T15:56:59;4.43;;;3.10;;
24635;SDS011;12772;49.794;10.024;2023-09-07T16:01:01;4.85;;;3.00;;
24635;SDS011;12772;49.794;10.024;2023-09-07T16:05:03;3.40;;;3.20;;
24635;SDS011;12772;49.794;10.024;2023-09-07T16:09:05;3.70;;;3.40;;
24635;SDS011;12772;49.794;10.024;2023-09-07T16:13:08;4.75;;;3.47;;
24635;SDS011;12772;49.794;10.024;2023-09-07T16:17:10;3.03;;;2.83;;
24635;SDS011;12772;49.794;10.024;2023-09-07T16:21:12;3.75;;;3.20;;
24635;SDS011;12772;49.794;10.024;2023-09-07T16:25:16;3.58;;;3.10;;
24635;SDS011;12772;49.794;10.024;2023-09-07T16:29:18;4.00;;;3.47;;
24635;SDS011;12772;49.794;10.024;2023-09-07T16:33:20;6.72;;;3.67;;
24635;SDS011;12772;49.794;10.024;2023-09-07T16:37:22;3.35;;;3.08;;
24635;SDS011;12772;49.794;10.024;2023-09-07T16:41:26;3.90;;;3.13;;
24635;SDS011;12772;49.794;10.024;2023-09-07T16:45:28;4.03;;;3.63;;
24635;SDS011;12772;49.794;10.024;2023-09-07T16:49:30;5.65;;;3.53;;
24635;SDS011;12772;49.794;10.024;2023-09-07T16:53:32;5.38;;;4.10;;
24635;SDS011;12772;49.794;10.024;2023-09-07T16:57:34;4.22;;;3.65;;
24635;SDS011;12772;49.794;10.024;2023-09-07T17:01:37;5.20;;;4.70;;
24635;SDS011;12772;49.794;10.024;2023-09-07T17:05:39;4.75;;;3.70;;
24635;SDS011;12772;49.794;10.024;2023-09-07T17:09:41;4.75;;;3.90;;
24635;SDS011;12772;49.794;10.024;2023-09-07T17:13:43;4.97;;;4.10;;
24635;SDS011;12772;49.794;10.024;2023-09-07T17:17:47;4.55;;;3.75;;
24635;SDS011;12772;49.794;10.024;2023-09-07T17:21:50;8.45;;;4.43;;
24635;SDS011;12772;49.794;10.024;2023-09-07T17:25:53;5.07;;;4.13;;
24635;SDS011;12772;49.794;10.024;2023-09-07T17:29:55;5.65;;;3.90;;
24635;SDS011;12772;49.794;10.024;2023-09-07T17:33:58;4.20;;;3.80;;
24635;SDS011;12772;49.794;10.024;2023-09-07T17:38:00;3.65;;;3.35;;
24635;SDS011;12772;49.794;10.024;2023-09-07T17:42:02;7.20;;;4.50;;
24635;SDS011;12772;49.794;10.024;2023-09-07T17:46:05;4.25;;;3.85;;
24635;SDS011;12772;49.794;10.024;2023-09-07T17:50:08;6.65;;;4.68;;
24635;SDS011;12772;49.794;10.024;2023-09-07T17:54:11;4.50;;;3.90;;
24635;SDS011;12772;49.794;10.024;2023-09-07T17:58:13;5.30;;;4.10;;
24635;SDS011;12772;49.794;10.024;2023-09-07T18:02:18;4.47;;;3.65;;
24635;SDS011;12772;49.794;10.024;2023-09-07T18:06:22;6.43;;;4.38;;
24635;SDS011;12772;49.794;10.024;2023-09-07T18:10:24;6.35;;;4.72;;
24635;SDS011;12772;49.794;10.024;2023-09-07T18:14:26;4.70;;;4.30;;
24635;SDS011;12772;49.794;10.024;2023-09-07T18:18:30;6.35;;;4.63;;
24635;SDS011;12772;49.794;10.024;2023-09-07T18:22:35;5.53;;;4.10;;
24635;SDS011;12772;49.794;10.024;2023-09-07T18:26:37;3.92;;;3.60;;
24635;SDS011;12772;49.794;10.024;2023-09-07T18:30:40;4.03;;;3.63;;
24635;SDS011;12772;49.794;10.024;2023-09-07T18:34:42;4.38;;;3.63;;
24635;SDS011;12772;49.794;10.024;2023-09-07T18:38:44;4.70;;;3.78;;
24635;SDS011;12772;49.794;10.024;2023-09-07T18:42:46;3.70;;;3.10;;
24635;SDS011;12772;49.794;10.024;2023-09-07T18:46:48;4.60;;;3.83;;
24635;SDS011;12772;49.794;10.024;2023-09-07T18:50:55;5.30;;;3.78;;
24635;SDS011;12772;49.794;10.024;2023-09-07T18:55:08;4.25;;;3.10;;
24635;SDS011;12772;49.794;10.024;2023-09-07T18:59:10;4.55;;;3.75;;
24635;SDS011;12772;49.794;10.024;2023-09-07T19:03:13;4.18;;;3.70;;
24635;SDS011;12772;49.794;10.024;2023-09-07T19:07:15;3.83;;;3.45;;
24635;SDS011;12772;49.794;10.024;2023-09-07T19:11:20;5.10;;;3.63;;
24635;SDS011;12772;49.794;10.024;2023-09-07T19:15:22;6.30;;;3.42;;
24635;SDS011;12772;49.794;10.024;2023-09-07T19:19:24;4.07;;;3.28;;
24635;SDS011;12772;49.794;10.024;2023-09-07T19:23:27;3.88;;;3.55;;
24635;SDS011;12772;49.794;10.024;2023-09-07T19:27:29;3.80;;;3.50;;
24635;SDS011;12772;49.794;10.024;2023-09-07T19:31:31;5.65;;;3.72;;
24635;SDS011;12772;49.794;10.024;2023-09-07T19:35:33;5.05;;;3.75;;
24635;SDS011;12772;49.794;10.024;2023-09-07T19:39:35;3.70;;;3.40;;
24635;SDS011;12772;49.794;10.024;2023-09-07T19:43:37;4.88;;;4.00;;
24635;SDS011;12772;49.794;10.024;2023-09-07T19:47:39;4.25;;;3.88;;
24635;SDS011;12772;49.794;10.024;2023-09-07T19:51:41;5.00;;;3.95;;
24635;SDS011;12772;49.794;10.024;2023-09-07T19:55:43;3.78;;;3.47;;
24635;SDS011;12772;49.794;10.024;2023-09-07T19:59:49;4.05;;;3.65;;
24635;SDS011;12772;49.794;10.024;2023-09-07T20:03:52;3.60;;;3.25;;
24635;SDS011;12772;49.794;10.024;2023-09-07T20:07:55;3.70;;;3.40;;
24635;SDS011;12772;49.794;10.024;2023-09-07T20:11:58;3.80;;;3.10;;
24635;SDS011;12772;49.794;10.024;2023-09-07T20:16:01;3.78;;;3.47;;
24635;SDS011;12772;49.794;10.024;2023-09-07T20:20:03;3.90;;;3.60;;
24635;SDS011;12772;49.794;10.024;2023-09-07T20:24:06;3.92;;;3.45;;
24635;SDS011;12772;49.794;10.024;2023-09-07T20:28:09;4.65;;;3.72;;
24635;SDS011;12772;49.794;10.024;2023-09-07T20:32:11;3.67;;;3.38;;
24635;SDS011;12772;49.794;10.024;2023-09-07T20:36:13;4.15;;;3.85;;
24635;SDS011;12772;49.794;10.024;2023-09-07T20:40:16;4.20;;;3.90;;
24635;SDS011;12772;49.794;10.024;2023-09-07T20:44:18;6.72;;;4.05;;
24635;SDS011;12772;49.794;10.024;2023-09-07T20:48:20;3.95;;;3.65;;
24635;SDS011;12772;49.794;10.024;2023-09-07T20:52:22;4.47;;;3.88;;
24635;SDS011;12772;49.794;10.024;2023-09-07T20:56:24;3.90;;;3.60;;
24635;SDS011;12772;49.794;10.024;2023-09-07T21:00:26;3.47;;;3.10;;
24635;SDS011;12772;49.794;10.024;2023-09-07T21:04:28;4.10;;;3.70;;
24635;SDS011;12772;49.794;10.024;2023-09-07T21:08:31;4.32;;;3.92;;
24635;SDS011;12772;49.794;10.024;2023-09-07T21:12:33;4.18;;;3.53;;
24635;SDS011;12772;49.794;10.024;2023-09-07T21:16:35;3.45;;;3.15;;
24635;SDS011;12772;49.794;10.024;2023-09-07T21:20:39;3.47;;;3.17;;
24635;SDS011;12772;49.794;10.024;2023-09-07T21:24:41;3.50;;;3.20;;
24635;SDS011;12772;49.794;10.024;2023-09-07T21:28:43;3.15;;;2.95;;
24635;SDS011;12772;49.794;10.024;2023-09-07T21:32:45;4.63;;;3.08;;
24635;SDS011;12772;49.794;10.024;2023-09-07T21:36:47;3.72;;;3.42;;
24635;SDS011;12772;49.794;10.024;2023-09-07T21:40:49;4.78;;;3.90;;
24635;SDS011;12772;49.794;10.024;2023-09-07T21:44:52;4.25;;;3.50;;
24635;SDS011;12772;49.794;10.024;2023-09-07T21:48:54;3.90;;;3.58;;
24635;SDS011;12772;49.794;10.024;2023-09-07T21:52:56;3.45;;;3.17;;
24635;SDS011;12772;49.794;10.024;2023-09-07T21:56:58;3.95;;;3.50;;
24635;SDS011;12772;49.794;10.024;2023-09-07T22:01:03;4.25;;;3.85;;
24635;SDS011;12772;49.794;10.024;2023-09-07T22:05:06;4.22;;;3.92;;
24635;SDS011;12772;49.794;10.024;2023-09-07T22:09:09;4.50;;;3.38;;
24635;SDS011;12772;49.794;10.024;2023-09-07T22:13:11;4.45;;;3.50;;
24635;SDS011;12772;49.794;10.024;2023-09-07T22:17:13;4.28;;;3.63;;
24635;SDS011;12772;49.794;10.024;2023-09-07T22:21:16;3.75;;;3.45;;
24635;SDS011;12772;49.794;10.024;2023-09-07T22:25:18;5.82;;;3.78;;
24635;SDS011;12772;49.794;10.024;2023-09-07T22:29:21;3.80;;;3.47;;
24635;SDS011;12772;49.794;10.024;2023-09-07T22:33:23;4.63;;;3.50;;
24635;SDS011;12772;49.794;10.024;2023-09-07T22:37:25;4.35;;;3.35;;
24635;SDS011;12772;49.794;10.024;2023-09-07T22:41:27;4.00;;;3.60;;
24635;SDS011;12772;49.794;10.024;2023-09-07T22:45:36;3.53;;;3.22;;
24635;SDS011;12772;49.794;10.024;2023-09-07T22:49:39;3.42;;;3.13;;
24635;SDS011;12772;49.794;10.024;2023-09-07T22:53:41;3.20;;;3.00;;
24635;SDS011;12772;49.794;10.024;2023-09-07T22:57:44;3.63;;;3.38;;
24635;SDS011;12772;49.794;10.024;2023-09-07T23:01:46;3.42;;;3.20;;
24635;SDS011;12772;49.794;10.024;2023-09-07T23:05:48;4.05;;;3.75;;
24635;SDS011;12772;49.794;10.024;2023-09-07T23:09:51;3.08;;;2.88;;
24635;SDS011;12772;49.794;10.024;2023-09-07T23:13:53;3.45;;;3.20;;
24635;SDS011;12772;49.794;10.024;2023-09-07T23:17:55;3.63;;;3.33;;
24635;SDS011;12772;49.794;10.024;2023-09-07T23:21:57;3.35;;;3.08;;
24635;SDS011;12772;49.794;10.024;2023-09-07T23:25:59;3.38;;;3.13;;
24635;SDS011;12772;49.794;10.024;2023-09-07T23:30:01;4.88;;;3.60;;
24635;SDS011;12772;49.794;10.024;2023-09-07T23:34:06;4.13;;;3.25;;
24635;SDS011;12772;49.794;10.024;2023-09-07T23:38:08;3.63;;;3.33;;
24635;SDS011;12772;49.794;10.024;2023-09-07T23:42:10;3.60;;;3.30;;
24635;SDS011;12772;49.794;10.024;2023-09-07T23:46:12;4.35;;;3.30;;
24635;SDS011;12772;49.794;10.024;2023-09-07T23:50:14;4.20;;;3.35;;
24635;SDS011;12772;49.794;10.024;2023-09-07T23:54:16;4.72;;;3.50;;
24635;SDS011;12772;49.794;10.024;2023-09-07T23:58:18;4.32;;;3.63;;
